createdAt,value
2022-12-29T00:01:16.645Z,3.40
2022-12-29T00:03:43.487Z,3.40
2022-12-29T00:06:12.493Z,3.50
2022-12-29T00:08:41.842Z,3.60
2022-12-29T00:11:18.136Z,3.60
2022-12-29T00:14:03.770Z,3.70
2022-12-29T00:16:34.507Z,3.70
2022-12-29T00:19:07.523Z,3.70
2022-12-29T00:21:52.723Z,3.80
2022-12-29T00:24:27.814Z,3.80
2022-12-29T00:27:18.420Z,3.80
2022-12-29T00:30:04.001Z,3.90
2022-12-29T00:32:49.401Z,3.90
2022-12-29T00:35:42.271Z,4.00
2022-12-29T00:38:31.623Z,4.00
2022-12-29T00:41:17.131Z,4.00
2022-12-29T00:44:05.749Z,4.10
2022-12-29T00:46:36.138Z,4.10
2022-12-29T00:49:21.569Z,4.20
2022-12-29T00:51:50.725Z,4.20
2022-12-29T00:54:18.338Z,4.20
2022-12-29T00:56:50.567Z,4.20
2022-12-29T00:59:17.735Z,4.20
2022-12-29T01:01:45.468Z,4.20
2022-12-29T01:04:14.997Z,4.20
2022-12-29T01:06:44.300Z,4.20
2022-12-29T01:09:30.419Z,4.20
2022-12-29T01:11:57.207Z,4.30
2022-12-29T01:14:24.783Z,4.30
2022-12-29T01:16:52.137Z,4.30
2022-12-29T01:19:19.665Z,4.40
2022-12-29T01:21:47.452Z,4.30
2022-12-29T01:24:18.206Z,4.40
2022-12-29T01:26:45.278Z,4.40
2022-12-29T01:29:12.374Z,4.40
2022-12-29T01:31:44.936Z,4.40
2022-12-29T01:34:14.227Z,4.40
2022-12-29T01:36:43.439Z,4.40
2022-12-29T01:39:10.191Z,4.40
2022-12-29T01:41:39.377Z,4.40
2022-12-29T01:44:47.007Z,4.50
2022-12-29T01:47:34.298Z,4.50
2022-12-29T01:50:11.960Z,4.50
2022-12-29T01:52:43.744Z,4.50
2022-12-29T01:55:11.960Z,4.50
2022-12-29T01:57:44.838Z,4.50
2022-12-29T02:00:14.627Z,4.50
2022-12-29T02:02:46.956Z,4.50
2022-12-29T02:05:48.619Z,4.60
2022-12-29T02:08:17.730Z,4.60
2022-12-29T02:10:48.236Z,4.60
2022-12-29T02:13:18.554Z,4.60
2022-12-29T02:16:03.441Z,4.70
2022-12-29T02:18:30.192Z,4.70
2022-12-29T02:20:56.825Z,4.70
2022-12-29T02:23:35.149Z,4.70
2022-12-29T02:26:16.977Z,4.80
2022-12-29T02:28:51.120Z,4.80
2022-12-29T02:31:42.752Z,4.80
2022-12-29T02:34:21.784Z,4.80
2022-12-29T02:37:06.723Z,4.80
2022-12-29T02:39:57.410Z,4.80
2022-12-29T02:42:36.566Z,4.90
2022-12-29T02:45:15.241Z,4.90
2022-12-29T02:47:51.757Z,4.90
2022-12-29T02:50:29.795Z,4.90
2022-12-29T02:53:05.582Z,4.90
2022-12-29T02:55:32.326Z,4.90
2022-12-29T02:58:22.478Z,4.90
2022-12-29T03:00:51.997Z,4.90
2022-12-29T03:03:47.321Z,4.90
2022-12-29T03:06:25.935Z,4.90
2022-12-29T03:09:20.006Z,4.90
2022-12-29T03:12:08.820Z,4.90
2022-12-29T03:15:32.670Z,5.00
2022-12-29T03:18:06.996Z,5.00
2022-12-29T03:20:57.355Z,5.00
2022-12-29T03:23:25.500Z,5.10
2022-12-29T03:25:58.881Z,5.10
2022-12-29T03:28:32.928Z,5.20
2022-12-29T03:31:00.557Z,5.20
2022-12-29T03:33:30.884Z,5.20
2022-12-29T03:36:03.814Z,5.30
2022-12-29T03:38:46.291Z,5.20
2022-12-29T03:41:18.387Z,5.30
2022-12-29T03:43:48.344Z,5.30
2022-12-29T03:46:15.184Z,5.30
2022-12-29T03:48:41.935Z,5.40
2022-12-29T03:51:08.600Z,5.40
2022-12-29T03:53:37.591Z,5.40
2022-12-29T03:56:04.603Z,5.40
2022-12-29T03:58:31.352Z,5.40
2022-12-29T04:00:58.351Z,5.50
2022-12-29T04:03:25.166Z,5.50
2022-12-29T04:05:51.947Z,5.50
2022-12-29T04:08:18.645Z,5.60
2022-12-29T04:10:49.869Z,5.60
2022-12-29T04:13:17.006Z,5.70
2022-12-29T04:15:46.273Z,5.80
2022-12-29T04:18:13.668Z,5.80
2022-12-29T04:20:59.183Z,5.80
2022-12-29T04:23:28.388Z,5.90
2022-12-29T04:25:57.687Z,5.90
2022-12-29T04:28:27.065Z,5.90
2022-12-29T04:30:57.034Z,6.00
2022-12-29T04:33:24.068Z,6.00
2022-12-29T04:35:51.212Z,5.90
2022-12-29T04:38:17.879Z,5.80
2022-12-29T04:40:46.044Z,5.80
2022-12-29T04:43:20.418Z,5.70
2022-12-29T04:45:51.387Z,5.70
2022-12-29T04:48:18.134Z,5.70
2022-12-29T04:50:48.030Z,5.80
2022-12-29T04:53:14.933Z,5.70
2022-12-29T04:55:43.862Z,5.70
2022-12-29T04:58:16.336Z,5.80
2022-12-29T05:00:49.740Z,5.80
2022-12-29T05:03:16.723Z,5.80
2022-12-29T05:05:45.235Z,5.80
2022-12-29T05:08:12.079Z,5.80
2022-12-29T05:10:38.971Z,5.80
2022-12-29T05:13:05.727Z,5.70
2022-12-29T05:15:35.825Z,5.60
2022-12-29T05:18:04.767Z,5.50
2022-12-29T05:20:31.580Z,5.40
2022-12-29T05:23:00.785Z,5.30
2022-12-29T05:25:27.442Z,5.30
2022-12-29T05:27:54.210Z,5.30
2022-12-29T05:30:21.007Z,5.30
2022-12-29T05:32:50.035Z,5.20
2022-12-29T05:35:16.884Z,5.30
2022-12-29T05:37:46.527Z,5.40
2022-12-29T05:40:15.468Z,5.40
2022-12-29T05:42:44.425Z,5.40
2022-12-29T05:45:11.427Z,5.40
2022-12-29T05:47:38.126Z,5.40
2022-12-29T05:50:05.249Z,5.40
2022-12-29T05:52:31.899Z,5.40
2022-12-29T05:55:01.196Z,5.40
2022-12-29T05:57:27.949Z,5.30
2022-12-29T05:59:54.675Z,5.20
2022-12-29T06:02:23.644Z,5.20
2022-12-29T06:04:50.420Z,5.20
2022-12-29T06:07:21.788Z,5.20
2022-12-29T06:09:48.555Z,5.30
2022-12-29T06:12:17.677Z,5.20
2022-12-29T06:14:44.493Z,5.10
2022-12-29T06:17:11.239Z,5.10
2022-12-29T06:19:37.998Z,5.10
2022-12-29T06:22:05.750Z,5.10
2022-12-29T06:24:34.975Z,5.00
2022-12-29T06:27:01.681Z,5.10
2022-12-29T06:29:28.935Z,5.10
2022-12-29T06:31:58.889Z,5.10
2022-12-29T06:34:28.430Z,5.20
2022-12-29T06:36:57.402Z,5.00
2022-12-29T06:39:24.068Z,5.00
2022-12-29T06:41:55.945Z,5.10
2022-12-29T06:44:22.929Z,5.10
2022-12-29T06:46:52.181Z,5.10
2022-12-29T06:49:23.767Z,5.00
2022-12-29T06:51:50.498Z,5.00
2022-12-29T06:54:17.180Z,4.90
2022-12-29T06:56:46.513Z,4.80
2022-12-29T06:59:13.245Z,4.70
2022-12-29T07:01:40.076Z,4.70
2022-12-29T07:04:06.876Z,4.70
2022-12-29T07:06:36.029Z,4.70
2022-12-29T07:09:05.274Z,4.80
2022-12-29T07:11:32.025Z,4.70
2022-12-29T07:14:02.298Z,4.70
2022-12-29T07:16:31.947Z,4.60
2022-12-29T07:19:01.109Z,4.60
2022-12-29T07:21:27.885Z,4.60
2022-12-29T07:23:55.576Z,4.50
2022-12-29T07:26:22.638Z,4.50
2022-12-29T07:28:51.605Z,4.60
2022-12-29T07:31:23.284Z,4.60
2022-12-29T07:33:53.128Z,4.70
2022-12-29T07:36:19.799Z,4.70
2022-12-29T07:38:48.805Z,4.70
2022-12-29T07:41:17.765Z,4.70
2022-12-29T07:43:48.547Z,4.70
2022-12-29T07:46:55.133Z,4.60
2022-12-29T07:49:04.361Z,4.60
2022-12-29T07:51:33.344Z,4.60
2022-12-29T07:54:01.692Z,4.50
2022-12-29T07:56:31.136Z,4.50
2022-12-29T07:58:57.881Z,4.60
2022-12-29T08:01:24.746Z,4.60
2022-12-29T08:03:57.149Z,4.70
2022-12-29T08:06:26.625Z,4.70
2022-12-29T08:08:53.411Z,4.80
2022-12-29T08:11:22.302Z,4.90
2022-12-29T08:13:51.589Z,5.00
2022-12-29T08:16:18.357Z,5.10
2022-12-29T08:18:47.568Z,5.20
2022-12-29T08:21:14.389Z,5.30
2022-12-29T08:23:41.128Z,5.50
2022-12-29T08:26:07.872Z,5.50
2022-12-29T08:28:37.060Z,5.60
2022-12-29T08:31:04.143Z,5.70
2022-12-29T08:33:33.374Z,5.90
2022-12-29T08:36:08.092Z,6.00
2022-12-29T08:38:34.867Z,6.20
2022-12-29T08:41:05.997Z,6.20
2022-12-29T08:43:32.670Z,6.30
2022-12-29T08:46:00.318Z,6.30
2022-12-29T08:48:29.561Z,6.30
2022-12-29T08:50:56.363Z,6.40
2022-12-29T08:53:25.938Z,6.50
2022-12-29T08:56:05.445Z,6.60
2022-12-29T08:58:33.418Z,6.60
2022-12-29T09:01:00.535Z,6.70
2022-12-29T09:06:16.482Z,6.80
2022-12-29T09:08:43.487Z,6.90
2022-12-29T09:11:19.010Z,7.00
2022-12-29T09:13:48.339Z,7.10
2022-12-29T09:16:18.074Z,7.30
2022-12-29T09:18:45.696Z,7.40
2022-12-29T09:21:15.425Z,7.50
2022-12-29T09:23:42.280Z,7.60
2022-12-29T09:26:11.521Z,7.80
2022-12-29T09:28:41.126Z,8.40
2022-12-29T09:31:08.031Z,8.70
2022-12-29T09:33:37.479Z,9.00
2022-12-29T09:36:07.276Z,9.30
2022-12-29T09:38:38.743Z,9.60
2022-12-29T09:41:35.669Z,9.70
2022-12-29T09:44:21.933Z,9.80
2022-12-29T09:46:52.047Z,10.00
2022-12-29T09:49:30.869Z,10.00
2022-12-29T09:52:19.238Z,10.00
2022-12-29T09:55:14.179Z,10.20
2022-12-29T09:58:19.805Z,10.40
2022-12-29T10:00:59.850Z,10.40
2022-12-29T10:03:50.307Z,10.60
2022-12-29T10:06:27.763Z,10.60
2022-12-29T10:09:00.741Z,10.60
2022-12-29T10:11:36.666Z,10.60
2022-12-29T10:14:15.657Z,10.60
2022-12-29T10:17:06.411Z,10.70
2022-12-29T10:19:49.813Z,11.00
2022-12-29T10:22:34.854Z,11.20
2022-12-29T10:25:11.797Z,11.40
2022-12-29T10:27:38.778Z,11.50
2022-12-29T10:30:06.090Z,11.50
2022-12-29T10:32:46.627Z,11.40
2022-12-29T10:35:22.520Z,11.30
2022-12-29T10:38:00.646Z,11.20
2022-12-29T10:40:50.516Z,11.10
2022-12-29T10:43:32.848Z,11.10
2022-12-29T10:46:06.533Z,11.10
2022-12-29T10:48:35.322Z,11.20
2022-12-29T10:51:09.899Z,11.40
2022-12-29T10:53:44.793Z,11.50
2022-12-29T10:56:45.239Z,11.70
2022-12-29T10:59:25.269Z,11.90
2022-12-29T11:02:04.899Z,12.00
2022-12-29T11:04:52.676Z,12.10
2022-12-29T11:07:26.966Z,12.00
2022-12-29T11:09:54.860Z,11.90
2022-12-29T11:12:30.840Z,11.90
2022-12-29T11:15:17.164Z,12.00
2022-12-29T11:18:00.530Z,12.00
2022-12-29T11:20:43.412Z,12.00
2022-12-29T11:23:35.277Z,12.00
2022-12-29T11:26:31.718Z,12.00
2022-12-29T11:29:09.874Z,12.00
2022-12-29T11:31:48.510Z,12.10
2022-12-29T11:34:36.633Z,12.20
2022-12-29T11:37:12.574Z,12.50
2022-12-29T11:39:45.968Z,12.70
2022-12-29T11:42:18.483Z,12.80
2022-12-29T11:44:48.248Z,12.90
2022-12-29T11:47:34.115Z,12.90
2022-12-29T11:50:09.958Z,12.90
2022-12-29T11:52:40.556Z,12.90
2022-12-29T11:55:23.034Z,13.00
2022-12-29T11:57:54.668Z,13.00
2022-12-29T12:00:25.924Z,13.00
2022-12-29T12:02:56.073Z,13.00
2022-12-29T12:05:37.786Z,13.00
2022-12-29T12:08:23.309Z,12.90
2022-12-29T12:11:05.476Z,12.90
2022-12-29T12:13:50.783Z,12.90
2022-12-29T12:16:22.213Z,12.90
2022-12-29T12:18:54.028Z,12.90
2022-12-29T12:21:26.676Z,12.90
2022-12-29T12:24:23.943Z,12.90
2022-12-29T12:26:59.788Z,12.90
2022-12-29T12:29:58.864Z,12.90
2022-12-29T12:32:49.022Z,12.90
2022-12-29T12:35:35.610Z,12.80
2022-12-29T12:38:31.793Z,12.80
2022-12-29T12:41:06.094Z,12.70
2022-12-29T12:44:02.395Z,12.70
2022-12-29T12:46:29.129Z,12.80
2022-12-29T12:49:20.964Z,12.80
2022-12-29T12:52:15.354Z,12.80
2022-12-29T12:54:44.783Z,12.70
2022-12-29T12:57:17.115Z,12.70
2022-12-29T12:59:59.080Z,12.60
2022-12-29T13:02:38.303Z,12.60
2022-12-29T13:05:12.545Z,12.60
2022-12-29T13:08:04.138Z,12.60
2022-12-29T13:10:36.827Z,12.50
2022-12-29T13:13:38.292Z,12.50
2022-12-29T13:16:24.208Z,12.50
2022-12-29T13:18:57.749Z,12.50
2022-12-29T13:22:12.093Z,12.50
2022-12-29T13:24:48.586Z,12.50
2022-12-29T13:27:44.432Z,12.50
2022-12-29T13:30:20.893Z,12.50
2022-12-29T13:32:52.807Z,12.50
2022-12-29T13:35:57.094Z,12.50
2022-12-29T13:38:23.802Z,12.50
2022-12-29T13:41:03.837Z,12.50
2022-12-29T13:43:38.826Z,12.50
2022-12-29T13:46:29.449Z,12.50
2022-12-29T13:49:01.288Z,12.40
2022-12-29T13:51:29.263Z,12.40
2022-12-29T13:54:04.506Z,12.30
2022-12-29T13:56:37.298Z,12.30
2022-12-29T13:59:12.751Z,12.30
2022-12-29T14:02:11.649Z,12.40
2022-12-29T14:04:57.432Z,12.40
2022-12-29T14:07:26.459Z,12.40
2022-12-29T14:09:57.239Z,12.40
2022-12-29T14:12:33.759Z,12.30
2022-12-29T14:15:17.643Z,12.30
2022-12-29T14:18:19.315Z,12.30
2022-12-29T14:20:58.177Z,12.30
2022-12-29T14:23:47.885Z,12.20
2022-12-29T14:26:32.631Z,12.30
2022-12-29T14:29:37.459Z,12.20
2022-12-29T14:32:27.070Z,12.20
2022-12-29T14:34:55.539Z,12.40
2022-12-29T14:37:29.565Z,12.40
2022-12-29T14:40:23.984Z,12.40
2022-12-29T14:42:57.530Z,12.50
2022-12-29T14:45:30.298Z,12.50
2022-12-29T14:47:57.760Z,12.50
2022-12-29T14:50:46.962Z,12.40
2022-12-29T14:53:44.181Z,12.40
2022-12-29T14:56:13.296Z,12.40
2022-12-29T14:58:42.739Z,12.30
2022-12-29T15:01:20.975Z,12.30
2022-12-29T15:03:51.233Z,12.20
2022-12-29T15:06:23.095Z,12.20
2022-12-29T15:09:15.467Z,12.20
2022-12-29T15:11:42.193Z,12.20
2022-12-29T15:14:54.423Z,12.10
2022-12-29T15:17:35.761Z,12.10
2022-12-29T15:20:35.687Z,12.00
2022-12-29T15:23:10.526Z,12.10
2022-12-29T15:26:01.917Z,12.00
2022-12-29T15:28:37.228Z,11.90
2022-12-29T15:31:12.361Z,11.80
2022-12-29T15:33:45.450Z,11.70
2022-12-29T15:36:23.759Z,11.60
2022-12-29T15:38:56.333Z,11.60
2022-12-29T15:41:30.488Z,11.40
2022-12-29T15:44:21.542Z,11.30
2022-12-29T15:46:48.363Z,11.00
2022-12-29T15:49:16.047Z,10.80
2022-12-29T15:51:44.646Z,10.70
2022-12-29T15:54:25.467Z,10.60
2022-12-29T15:56:52.238Z,10.60
2022-12-29T15:59:36.041Z,10.80
2022-12-29T16:02:12.721Z,10.90
2022-12-29T16:05:01.533Z,10.90
2022-12-29T16:07:41.645Z,11.00
2022-12-29T16:10:31.420Z,11.10
2022-12-29T16:13:14.718Z,11.10
2022-12-29T16:15:41.505Z,11.20
2022-12-29T16:18:25.792Z,11.20
2022-12-29T16:20:54.186Z,11.20
2022-12-29T16:23:26.987Z,11.10
2022-12-29T16:25:58.928Z,11.20
2022-12-29T16:28:25.575Z,11.30
2022-12-29T16:31:25.751Z,11.40
2022-12-29T16:33:56.541Z,11.40
2022-12-29T16:36:24.410Z,11.50
2022-12-29T16:38:51.170Z,11.60
2022-12-29T16:41:33.101Z,11.50
2022-12-29T16:44:19.556Z,11.40
2022-12-29T16:47:39.920Z,11.30
2022-12-29T16:50:32.375Z,11.20
2022-12-29T16:56:14.675Z,11.10
2022-12-29T17:01:30.451Z,10.90
2022-12-29T17:04:06.900Z,10.70
2022-12-29T17:06:44.149Z,10.70
2022-12-29T17:09:20.457Z,10.60
2022-12-29T17:12:02.529Z,10.60
2022-12-29T17:14:37.403Z,10.60
2022-12-29T17:17:09.974Z,10.50
2022-12-29T17:19:38.994Z,10.50
2022-12-29T17:22:18.969Z,10.50
2022-12-29T17:24:48.277Z,10.40
2022-12-29T17:27:37.657Z,10.40
2022-12-29T17:30:12.066Z,10.30
2022-12-29T17:32:41.468Z,10.30
2022-12-29T17:35:20.432Z,10.20
2022-12-29T17:37:47.460Z,10.20
2022-12-29T17:40:18.964Z,10.10
2022-12-29T17:42:50.541Z,10.10
2022-12-29T17:45:26.296Z,10.10
2022-12-29T17:47:53.732Z,10.10
2022-12-29T17:50:25.949Z,10.10
2022-12-29T17:53:00.641Z,10.10
2022-12-29T17:55:34.651Z,10.00
2022-12-29T17:58:21.591Z,9.90
2022-12-29T18:00:50.935Z,9.80
2022-12-29T18:03:21.239Z,9.80
2022-12-29T18:05:49.779Z,9.80
2022-12-29T18:08:16.511Z,9.80
2022-12-29T18:10:43.574Z,9.90
2022-12-29T18:13:21.390Z,9.90
2022-12-29T18:15:51.122Z,9.90
2022-12-29T18:18:20.984Z,9.80
2022-12-29T18:20:49.169Z,9.80
2022-12-29T18:23:32.415Z,9.80
2022-12-29T18:26:12.462Z,9.70
2022-12-29T18:28:39.214Z,9.80
2022-12-29T18:31:16.494Z,9.80
2022-12-29T18:33:46.250Z,9.80
2022-12-29T18:36:13.966Z,9.70
2022-12-29T18:38:42.642Z,9.70
2022-12-29T18:41:16.507Z,9.60
2022-12-29T18:43:48.123Z,9.60
2022-12-29T18:46:22.101Z,9.70
2022-12-29T18:48:49.622Z,9.60
2022-12-29T18:51:19.068Z,9.60
2022-12-29T18:53:49.080Z,9.70
2022-12-29T18:56:18.073Z,9.80
2022-12-29T18:58:46.877Z,9.70
2022-12-29T19:01:24.142Z,9.70
2022-12-29T19:03:51.634Z,9.60
2022-12-29T19:06:19.593Z,9.60
2022-12-29T19:08:46.452Z,9.60
2022-12-29T19:11:15.510Z,9.60
2022-12-29T19:13:42.294Z,9.70
2022-12-29T19:16:20.752Z,9.80
2022-12-29T19:18:58.556Z,9.90
2022-12-29T19:21:36.531Z,9.80
2022-12-29T19:24:06.234Z,9.80
2022-12-29T19:26:37.956Z,9.60
2022-12-29T19:29:07.881Z,9.50
2022-12-29T19:31:36.912Z,9.50
2022-12-29T19:34:08.203Z,9.50
2022-12-29T19:36:37.152Z,9.50
2022-12-29T19:39:06.251Z,9.50
2022-12-29T19:41:33.274Z,9.40
2022-12-29T19:44:02.278Z,9.40
2022-12-29T19:46:29.123Z,9.30
2022-12-29T19:48:58.896Z,9.30
2022-12-29T19:51:26.696Z,9.30
2022-12-29T19:53:58.446Z,9.20
2022-12-29T19:56:27.499Z,9.20
2022-12-29T19:59:00.476Z,9.20
2022-12-29T20:01:27.808Z,9.10
2022-12-29T20:04:10.543Z,9.10
2022-12-29T20:06:39.711Z,9.00
2022-12-29T20:09:08.813Z,9.10
2022-12-29T20:11:36.304Z,9.00
2022-12-29T20:14:05.615Z,9.00
2022-12-29T20:16:32.513Z,9.00
2022-12-29T20:19:04.725Z,8.90
2022-12-29T20:21:31.468Z,8.90
2022-12-29T20:24:00.231Z,8.80
2022-12-29T20:26:32.082Z,8.80
2022-12-29T20:29:01.528Z,8.80
2022-12-29T20:31:36.524Z,8.80
2022-12-29T20:34:10.978Z,8.80
2022-12-29T20:36:42.873Z,8.70
2022-12-29T20:39:16.752Z,8.70
2022-12-29T20:41:44.546Z,8.70
2022-12-29T20:44:11.457Z,8.70
2022-12-29T20:46:43.609Z,8.80
2022-12-29T20:49:13.398Z,8.90
2022-12-29T20:54:34.096Z,8.80
2022-12-29T20:57:08.409Z,8.70
2022-12-29T20:59:36.850Z,8.70
2022-12-29T21:02:04.292Z,8.80
2022-12-29T21:04:56.988Z,8.70
2022-12-29T21:07:20.285Z,8.70
2022-12-29T21:09:47.525Z,8.80
2022-12-29T21:12:24.106Z,8.90
2022-12-29T21:14:50.880Z,8.90
2022-12-29T21:17:17.983Z,9.00
2022-12-29T21:19:47.269Z,8.90
2022-12-29T21:22:14.109Z,8.90
2022-12-29T21:24:43.287Z,8.90
2022-12-29T21:27:10.375Z,8.80
2022-12-29T21:29:37.103Z,8.70
2022-12-29T21:32:07.078Z,8.60
2022-12-29T21:34:36.217Z,8.50
2022-12-29T21:37:06.102Z,8.50
2022-12-29T21:39:37.489Z,8.50
2022-12-29T21:42:06.479Z,8.40
2022-12-29T21:44:54.685Z,8.50
2022-12-29T21:47:23.873Z,8.50
2022-12-29T21:49:50.570Z,8.70
2022-12-29T21:52:20.087Z,8.70
2022-12-29T21:55:02.063Z,8.60
2022-12-29T21:57:47.334Z,8.70
2022-12-29T22:00:33.267Z,8.70
2022-12-29T22:03:23.335Z,8.80
2022-12-29T22:06:10.561Z,8.80
2022-12-29T22:08:57.240Z,8.70
2022-12-29T22:11:42.899Z,8.50
2022-12-29T22:14:10.278Z,8.50
2022-12-29T22:16:37.114Z,8.60
2022-12-29T22:19:03.980Z,8.60
2022-12-29T22:21:30.954Z,8.60
2022-12-29T22:23:57.739Z,8.50
2022-12-29T22:26:24.453Z,8.40
2022-12-29T22:28:52.465Z,8.40
2022-12-29T22:31:37.329Z,8.50
2022-12-29T22:34:04.685Z,8.50
2022-12-29T22:36:32.285Z,8.50
2022-12-29T22:38:59.139Z,8.50
2022-12-29T22:41:25.889Z,8.50
2022-12-29T22:43:55.156Z,8.60
2022-12-29T22:46:24.741Z,8.60
2022-12-29T22:48:51.614Z,8.60
2022-12-29T22:51:18.384Z,8.40
2022-12-29T22:53:51.074Z,8.40
2022-12-29T22:56:18.487Z,8.50
2022-12-29T22:58:47.630Z,8.50
2022-12-29T23:01:16.644Z,8.40
2022-12-29T23:03:44.500Z,8.40
2022-12-29T23:06:13.445Z,8.40
2022-12-29T23:08:40.568Z,8.40
2022-12-29T23:11:11.876Z,8.50
2022-12-29T23:13:42.127Z,8.50
2022-12-29T23:16:11.436Z,8.50
2022-12-29T23:18:41.339Z,8.50
2022-12-29T23:21:08.781Z,8.40
2022-12-29T23:23:54.835Z,8.40
2022-12-29T23:26:30.880Z,8.40
2022-12-29T23:29:00.511Z,8.30
2022-12-29T23:31:27.970Z,8.30
2022-12-29T23:33:55.499Z,8.30
2022-12-29T23:36:22.996Z,8.40
2022-12-29T23:38:49.701Z,8.40
2022-12-29T23:41:18.818Z,8.40
2022-12-29T23:43:48.115Z,8.40
2022-12-29T23:46:21.355Z,8.40
2022-12-29T23:48:48.314Z,8.30
2022-12-29T23:51:15.097Z,8.20
2022-12-29T23:53:43.716Z,8.20
2022-12-29T23:56:17.018Z,8.10
2022-12-29T23:58:43.830Z,8.20
